Time;durP1;ratioP1;P1;durP2;ratioP2;P2;SDS_P1;SDS_P2;PMS_P1;PMS_P2;Temp;Humidity;BMP_temperature;BMP_pressure;BME280_temperature;BME280_humidity;BME280_pressure;Samples;Min_cycle;Max_cycle;Signal;HPM_P1;HPM_P2
2024/04/02 00:02:11;;;;;;;2.40;2.03;;;11.00;99.90;;;;;;5054709;28;20447;-63
2024/04/02 00:04:37;;;;;;;3.40;1.97;;;11.00;99.90;;;;;;5038795;28;20778;-70
2024/04/02 00:07:04;;;;;;;1.90;1.70;;;11.10;99.90;;;;;;5034659;28;20527;-62
2024/04/02 00:09:30;;;;;;;2.33;1.80;;;11.10;99.90;;;;;;5034390;28;20805;-63
2024/04/02 00:11:58;;;;;;;2.87;1.87;;;11.10;99.90;;;;;;5034349;28;20471;-62
2024/04/02 00:14:24;;;;;;;2.60;1.60;;;11.10;99.90;;;;;;5034255;28;20617;-63
2024/04/02 00:16:51;;;;;;;5.43;1.73;;;11.10;99.90;;;;;;5034287;28;20448;-63
2024/04/02 00:19:17;;;;;;;1.93;1.57;;;11.10;99.90;;;;;;5044694;28;20480;-62
2024/04/02 00:21:44;;;;;;;2.90;1.93;;;11.10;99.90;;;;;;5054219;28;20815;-62
2024/04/02 00:24:10;;;;;;;1.90;1.57;;;11.10;99.90;;;;;;5053845;28;20243;-63
2024/04/02 00:26:36;;;;;;;1.70;1.43;;;11.20;99.90;;;;;;5053906;28;20936;-62
2024/04/02 00:29:04;;;;;;;1.47;1.17;;;11.20;99.90;;;;;;5054149;28;20193;-61
2024/04/02 00:31:30;;;;;;;1.60;1.20;;;11.30;99.90;;;;;;5053888;28;20448;-63
2024/04/02 00:33:56;;;;;;;2.40;1.30;;;11.30;99.90;;;;;;5047821;28;20496;-62
2024/04/02 00:36:23;;;;;;;1.27;1.00;;;11.30;99.90;;;;;;5033823;28;20472;-62
2024/04/02 00:38:49;;;;;;;1.90;1.17;;;11.20;99.90;;;;;;5034017;28;20221;-63
2024/04/02 00:41:16;;;;;;;1.83;1.10;;;11.30;99.90;;;;;;5034119;28;21025;-60
2024/04/02 00:43:42;;;;;;;1.40;1.03;;;11.30;99.90;;;;;;5033723;28;20264;-62
2024/04/02 00:46:10;;;;;;;1.73;1.03;;;11.40;99.90;;;;;;5034073;28;20475;-62
2024/04/02 00:48:37;;;;;;;2.97;1.63;;;11.30;99.90;;;;;;5032972;28;20682;-62
2024/04/02 00:51:04;;;;;;;1.63;1.50;;;11.40;99.90;;;;;;5014140;28;20545;-62
2024/04/02 00:53:30;;;;;;;5.30;2.70;;;11.40;99.90;;;;;;5013419;28;21004;-60
2024/04/02 00:55:58;;;;;;;1.60;1.37;;;11.40;99.90;;;;;;5018970;28;20445;-63
2024/04/02 00:58:24;;;;;;;2.17;1.97;;;11.50;99.90;;;;;;5033717;28;20480;-61
2024/04/02 01:00:51;;;;;;;3.27;2.30;;;11.60;99.90;;;;;;5033754;28;20797;-60
2024/04/02 01:03:19;;;;;;;4.10;1.87;;;11.60;99.90;;;;;;5033693;28;20447;-60
2024/04/02 01:05:45;;;;;;;2.77;2.43;;;11.60;99.90;;;;;;5034017;28;20440;-60
2024/04/02 01:08:11;;;;;;;3.80;1.70;;;11.60;99.90;;;;;;5035659;28;20885;-62
2024/04/02 01:10:45;;;;;;;10.70;4.83;;;11.60;99.90;;;;;;5053439;28;20535;-62
2024/04/02 01:13:12;;;;;;;6.10;3.73;;;11.60;99.90;;;;;;5053715;28;20876;-62
2024/04/02 01:15:39;;;;;;;4.83;2.27;;;11.60;99.90;;;;;;5053196;28;20443;-62
2024/04/02 01:18:05;;;;;;;2.80;2.07;;;11.60;99.90;;;;;;5053132;28;20589;-62
2024/04/02 01:20:33;;;;;;;4.97;2.50;;;11.60;99.90;;;;;;5051588;28;20439;-60
2024/04/02 01:22:59;;;;;;;4.30;2.27;;;11.50;99.90;;;;;;5052591;28;20486;-63
2024/04/02 01:25:27;;;;;;;4.80;2.67;;;11.50;99.90;;;;;;5052969;28;20495;-60
2024/04/02 01:27:53;;;;;;;3.73;2.33;;;11.50;99.90;;;;;;5049804;28;20281;-61
2024/04/02 01:30:20;;;;;;;2.40;2.10;;;11.50;99.90;;;;;;5052733;28;20891;-59
2024/04/02 01:32:49;;;;;;;6.23;2.70;;;11.50;99.90;;;;;;5053498;28;20712;-63
2024/04/02 01:35:17;;;;;;;2.70;1.53;;;11.50;99.90;;;;;;5040369;28;21043;-63
2024/04/02 01:37:43;;;;;;;2.27;1.67;;;11.50;99.90;;;;;;5033474;28;20449;-63
2024/04/02 01:40:11;;;;;;;2.10;1.90;;;11.40;99.90;;;;;;5033411;28;20481;-63
2024/04/02 01:42:38;;;;;;;5.10;2.30;;;11.50;99.90;;;;;;5033206;28;20233;-62
2024/04/02 01:45:05;;;;;;;2.07;1.80;;;11.50;99.90;;;;;;5033334;28;20468;-63
2024/04/02 01:47:31;;;;;;;9.60;2.80;;;11.40;99.90;;;;;;5033879;28;20816;-65
2024/04/02 01:49:58;;;;;;;2.03;1.67;;;11.40;99.90;;;;;;5040377;28;20497;-62
2024/04/02 01:52:24;;;;;;;1.93;1.83;;;11.40;99.90;;;;;;5053181;28;20443;-62
2024/04/02 01:54:51;;;;;;;4.53;2.03;;;11.50;99.90;;;;;;5052771;28;20554;-61
2024/04/02 01:57:17;;;;;;;2.53;1.63;;;11.40;99.90;;;;;;5053261;28;20247;-62
2024/04/02 01:59:45;;;;;;;2.03;1.60;;;11.40;99.90;;;;;;5052885;28;20475;-63
2024/04/02 02:02:11;;;;;;;1.93;1.47;;;11.30;99.90;;;;;;5052293;28;20514;-61
2024/04/02 02:04:38;;;;;;;3.20;1.60;;;11.30;99.90;;;;;;5051061;28;21190;-63
2024/04/02 02:07:04;;;;;;;3.80;2.80;;;11.20;99.90;;;;;;5052732;28;20530;-63
2024/04/02 02:09:31;;;;;;;3.77;2.87;;;11.20;99.90;;;;;;5052433;28;20470;-61
2024/04/02 02:11:57;;;;;;;1.90;1.57;;;11.20;99.90;;;;;;5052285;28;20534;-62
2024/04/02 02:14:24;;;;;;;1.67;1.10;;;11.10;99.90;;;;;;5038141;28;20547;-62
2024/04/02 02:16:51;;;;;;;2.13;1.93;;;11.10;99.90;;;;;;5031942;28;20256;-61
2024/04/02 02:19:18;;;;;;;2.70;1.80;;;11.00;99.90;;;;;;5032602;28;20477;-61
2024/04/02 02:21:46;;;;;;;2.30;1.60;;;11.00;99.90;;;;;;5032871;28;20535;-61
2024/04/02 02:24:13;;;;;;;2.00;1.53;;;11.00;99.90;;;;;;5031650;28;20567;-60
2024/04/02 02:26:38;;;;;;;3.77;1.40;;;11.00;99.90;;;;;;5032807;28;20480;-60
2024/04/02 02:29:05;;;;;;;2.07;1.87;;;11.00;99.90;;;;;;5032302;28;20487;-62
2024/04/02 02:31:35;;;;;;;2.40;1.93;;;10.90;99.90;;;;;;5032111;28;20448;-64
2024/04/02 02:34:03;;;;;;;2.73;1.80;;;10.90;99.90;;;;;;5031754;28;20460;-62
2024/04/02 02:36:29;;;;;;;2.40;1.33;;;10.90;99.90;;;;;;5045658;28;20805;-61
2024/04/02 02:38:56;;;;;;;1.20;1.10;;;10.80;99.90;;;;;;5051948;28;20471;-61
2024/04/02 02:41:22;;;;;;;3.10;2.20;;;10.70;99.90;;;;;;5051670;28;20201;-62
2024/04/02 02:43:49;;;;;;;2.53;1.30;;;10.70;99.90;;;;;;5051343;28;20464;-62
2024/04/02 02:46:15;;;;;;;2.80;1.60;;;10.60;99.90;;;;;;5034562;28;20197;-62
2024/04/02 02:48:42;;;;;;;2.10;1.07;;;10.50;99.90;;;;;;5031490;28;20515;-60
2024/04/02 02:51:09;;;;;;;1.63;1.30;;;10.50;99.90;;;;;;5032356;28;20198;-61
2024/04/02 02:53:36;;;;;;;6.30;1.40;;;10.50;99.90;;;;;;5031214;28;20472;-62
2024/04/02 02:56:05;;;;;;;1.70;1.50;;;10.40;99.90;;;;;;5031657;28;20527;-63
2024/04/02 02:58:32;;;;;;;1.77;1.17;;;10.40;99.90;;;;;;5031583;28;20472;-64
2024/04/02 03:01:04;;;;;;;2.03;1.30;;;10.40;99.90;;;;;;5031714;28;20436;-62
2024/04/02 03:03:33;;;;;;;1.43;1.30;;;10.40;99.90;;;;;;5031451;28;20441;-62
2024/04/02 03:05:59;;;;;;;1.80;1.53;;;10.30;99.90;;;;;;5037283;28;20523;-61
2024/04/02 03:08:28;;;;;;;2.00;1.40;;;10.30;99.90;;;;;;5047210;28;20518;-60
2024/04/02 03:10:54;;;;;;;3.87;1.57;;;10.30;99.90;;;;;;5032424;28;20448;-57
2024/04/02 03:13:21;;;;;;;2.63;1.23;;;10.30;99.90;;;;;;5035639;28;21004;-61
2024/04/02 03:15:47;;;;;;;1.63;1.20;;;10.30;99.90;;;;;;5035158;28;20527;-60
2024/04/02 03:18:14;;;;;;;2.47;1.60;;;10.30;99.90;;;;;;5035477;28;20527;-62
2024/04/02 03:20:40;;;;;;;1.53;1.23;;;10.30;99.90;;;;;;5035895;28;20201;-61
2024/04/02 03:23:07;;;;;;;1.40;1.10;;;10.20;99.90;;;;;;5131888;22;20553;-65
2024/04/02 03:25:34;;;;;;;2.00;1.60;;;10.20;99.90;;;;;;5100171;28;20243;-64
2024/04/02 03:28:01;;;;;;;2.70;1.47;;;10.20;99.90;;;;;;5100163;28;21016;-64
2024/04/02 03:30:27;;;;;;;1.67;1.37;;;10.20;99.90;;;;;;5099691;28;20469;-65
2024/04/02 03:32:54;;;;;;;3.13;1.00;;;10.20;99.90;;;;;;5099382;28;20438;-65
2024/04/02 03:35:20;;;;;;;1.70;1.50;;;10.20;99.90;;;;;;5098934;28;20457;-65
2024/04/02 03:37:47;;;;;;;2.00;1.27;;;10.20;99.90;;;;;;5083037;28;20469;-65
2024/04/02 03:40:13;;;;;;;2.33;1.80;;;10.30;99.90;;;;;;5061079;28;20483;-64
2024/04/02 03:42:42;;;;;;;2.37;1.20;;;10.30;99.90;;;;;;5079890;28;20533;-65
2024/04/02 03:45:08;;;;;;;5.07;1.97;;;10.20;99.90;;;;;;5083202;28;20493;-65
2024/04/02 03:47:35;;;;;;;1.47;1.37;;;10.30;99.90;;;;;;5068052;28;20880;-65
2024/04/02 03:50:02;;;;;;;2.20;1.70;;;10.30;99.90;;;;;;5080540;28;20434;-65
2024/04/02 03:52:29;;;;;;;2.00;1.53;;;10.20;99.90;;;;;;5092265;28;20441;-64
2024/04/02 03:54:55;;;;;;;2.80;2.10;;;10.30;99.90;;;;;;5099768;28;20504;-64
2024/04/02 03:57:22;;;;;;;4.23;1.37;;;10.30;99.90;;;;;;5102679;28;20966;-65
2024/04/02 03:59:50;;;;;;;2.50;1.60;;;10.40;99.90;;;;;;5101410;28;20565;-64
2024/04/02 04:02:16;;;;;;;2.17;1.50;;;10.40;99.90;;;;;;5085045;28;20438;-65
2024/04/02 04:04:42;;;;;;;2.70;1.47;;;10.40;99.90;;;;;;5080655;28;20873;-65
2024/04/02 04:07:10;;;;;;;2.00;1.50;;;10.40;99.90;;;;;;5090883;28;20459;-64
2024/04/02 04:09:36;;;;;;;3.07;1.70;;;10.40;99.90;;;;;;5099084;28;20439;-64
2024/04/02 04:12:04;;;;;;;3.33;1.70;;;10.50;99.90;;;;;;5098221;28;20438;-64
2024/04/02 04:14:30;;;;;;;1.90;1.67;;;10.50;99.90;;;;;;5097661;28;20486;-64
2024/04/02 04:16:58;;;;;;;2.23;2.00;;;10.40;99.90;;;;;;5098199;28;20439;-64
2024/04/02 04:19:28;;;;;;;3.63;2.03;;;10.50;99.90;;;;;;5086583;28;20482;-64
2024/04/02 04:21:55;;;;;;;2.83;2.00;;;10.50;99.90;;;;;;5077502;28;20530;-65
2024/04/02 04:24:24;;;;;;;4.50;1.87;;;10.40;99.90;;;;;;5076481;28;20450;-66
2024/04/02 04:26:50;;;;;;;2.33;1.60;;;10.30;99.90;;;;;;5076712;28;20502;-64
2024/04/02 04:29:16;;;;;;;2.10;1.77;;;10.30;99.90;;;;;;5077300;28;20467;-65
2024/04/02 04:31:46;;;;;;;3.00;1.90;;;10.40;99.90;;;;;;5077857;28;20443;-65
2024/04/02 04:34:14;;;;;;;3.90;2.57;;;10.40;99.90;;;;;;5076941;28;20691;-64
2024/04/02 04:36:41;;;;;;;2.20;1.70;;;10.30;99.90;;;;;;5078215;28;20477;-65
2024/04/02 04:39:08;;;;;;;2.07;1.70;;;10.30;99.90;;;;;;5078278;28;20873;-65
2024/04/02 04:41:35;;;;;;;3.77;2.47;;;10.30;99.90;;;;;;5086435;28;20466;-63
2024/04/02 04:44:01;;;;;;;3.97;1.80;;;10.40;99.90;;;;;;5107362;28;20441;-63
2024/04/02 04:46:30;;;;;;;4.83;2.40;;;10.40;99.90;;;;;;5112303;28;20473;-62
2024/04/02 04:48:56;;;;;;;2.57;1.90;;;10.40;99.90;;;;;;5104230;28;20438;-65
2024/04/02 04:51:24;;;;;;;2.40;1.93;;;10.40;99.90;;;;;;5100711;28;20499;-64
2024/04/02 04:53:50;;;;;;;3.67;2.40;;;10.40;99.90;;;;;;5084915;28;20462;-64
2024/04/02 04:56:17;;;;;;;6.90;2.37;;;10.50;99.90;;;;;;5093334;28;20812;-64
2024/04/02 04:58:43;;;;;;;3.73;2.47;;;10.50;99.90;;;;;;5088924;28;20227;-64
2024/04/02 05:01:11;;;;;;;2.57;2.20;;;10.60;99.90;;;;;;5089047;28;20507;-65
2024/04/02 05:03:37;;;;;;;3.50;3.10;;;10.60;99.90;;;;;;5090652;28;20459;-64
2024/04/02 05:06:05;;;;;;;2.77;1.90;;;10.60;99.90;;;;;;5090729;28;20557;-64
2024/04/02 05:08:35;;;;;;;2.00;1.77;;;10.60;99.90;;;;;;5091437;28;20435;-64
2024/04/02 05:11:03;;;;;;;2.43;2.10;;;10.60;99.90;;;;;;5084057;28;20791;-65
2024/04/02 05:13:30;;;;;;;6.93;2.57;;;10.60;99.90;;;;;;5080677;28;20443;-65
2024/04/02 05:15:57;;;;;;;3.13;2.13;;;10.60;99.90;;;;;;5067638;28;20458;-65
2024/04/02 05:18:23;;;;;;;5.37;3.03;;;10.60;99.90;;;;;;5104209;28;20438;-64
2024/04/02 05:20:50;;;;;;;5.40;2.30;;;10.60;99.90;;;;;;5100111;28;20926;-64
2024/04/02 05:23:17;;;;;;;2.80;2.60;;;10.60;99.90;;;;;;5101971;28;20477;-64
2024/04/02 05:25:46;;;;;;;7.60;2.67;;;10.60;99.90;;;;;;5088962;28;20472;-65
2024/04/02 05:28:12;;;;;;;4.90;2.70;;;10.60;99.90;;;;;;5086944;28;20505;-65
2024/04/02 05:30:39;;;;;;;3.40;2.57;;;10.60;99.90;;;;;;5100680;28;20437;-65
2024/04/02 05:33:05;;;;;;;4.70;2.47;;;10.60;99.90;;;;;;5100978;28;20477;-65
2024/04/02 05:35:32;;;;;;;2.40;1.90;;;10.60;99.90;;;;;;5097331;28;20493;-65
2024/04/02 05:37:58;;;;;;;3.40;3.00;;;10.60;99.90;;;;;;5081097;28;20443;-63
2024/04/02 05:40:25;;;;;;;3.17;2.87;;;10.60;99.90;;;;;;5099165;28;20466;-61
2024/04/02 05:42:53;;;;;;;2.30;1.90;;;10.60;99.90;;;;;;5101168;28;20470;-63
2024/04/02 05:45:20;;;;;;;4.30;2.40;;;10.60;99.90;;;;;;5103613;28;20466;-63
2024/04/02 05:47:46;;;;;;;4.27;2.57;;;10.60;99.90;;;;;;5092001;28;20513;-62
2024/04/02 05:50:17;;;;;;;3.13;2.63;;;10.60;99.90;;;;;;5088559;28;20492;-60
2024/04/02 05:52:44;;;;;;;9.97;3.93;;;10.60;99.90;;;;;;5090125;28;20451;-62
2024/04/02 05:55:11;;;;;;;2.80;2.60;;;10.70;99.90;;;;;;5101380;28;20521;-61
2024/04/02 05:57:37;;;;;;;4.10;2.80;;;10.70;99.90;;;;;;5112717;28;20422;-61
2024/04/02 06:00:07;;;;;;;7.63;3.77;;;10.70;99.90;;;;;;5113229;28;20546;-62
2024/04/02 06:02:33;;;;;;;2.70;2.50;;;10.70;99.90;;;;;;5115261;28;20426;-61
2024/04/02 06:05:00;;;;;;;4.80;3.57;;;10.80;99.90;;;;;;5115844;28;20457;-62
2024/04/02 06:07:25;;;;;;;3.30;2.57;;;10.80;99.90;;;;;;5115686;28;20445;-61
2024/04/02 06:09:52;;;;;;;4.87;3.00;;;10.80;99.90;;;;;;5108270;28;20430;-61
2024/04/02 06:12:18;;;;;;;6.67;2.43;;;10.80;99.90;;;;;;5077716;28;20443;-61
2024/04/02 06:14:45;;;;;;;3.83;2.47;;;10.90;99.90;;;;;;5095336;28;20446;-62
2024/04/02 06:17:13;;;;;;;4.00;3.57;;;10.90;99.90;;;;;;5095694;28;20443;-61
2024/04/02 06:19:40;;;;;;;5.03;2.93;;;10.90;99.90;;;;;;5095817;28;20518;-61
2024/04/02 06:22:06;;;;;;;4.20;2.90;;;11.00;99.90;;;;;;5110705;28;20453;-62
2024/04/02 06:24:33;;;;;;;6.17;3.33;;;11.00;99.90;;;;;;5116097;28;20501;-61
2024/04/02 06:26:59;;;;;;;4.30;3.13;;;11.00;99.90;;;;;;5116011;28;20447;-63
2024/04/02 06:29:26;;;;;;;4.33;3.27;;;11.10;99.90;;;;;;5116336;28;20441;-61
2024/04/02 06:31:53;;;;;;;3.30;3.00;;;11.10;99.90;;;;;;5116390;28;20184;-62
2024/04/02 06:34:22;;;;;;;3.60;2.80;;;11.10;99.90;;;;;;5115561;28;20442;-62
2024/04/02 06:36:48;;;;;;;4.07;3.17;;;11.10;99.90;;;;;;5110566;28;20441;-63
2024/04/02 06:39:15;;;;;;;4.60;3.00;;;11.10;99.90;;;;;;5115308;28;20506;-63
2024/04/02 06:41:41;;;;;;;6.30;3.57;;;11.20;99.90;;;;;;5116145;28;20441;-62
2024/04/02 06:44:08;;;;;;;5.10;3.53;;;11.30;99.90;;;;;;5115625;28;20421;-62
2024/04/02 06:46:34;;;;;;;5.43;3.47;;;11.30;99.90;;;;;;5114940;28;20499;-62
2024/04/02 06:49:01;;;;;;;3.03;2.70;;;11.40;99.90;;;;;;5116013;28;20497;-62
2024/04/02 06:51:29;;;;;;;3.30;3.00;;;11.40;99.90;;;;;;5115982;28;20442;-61
2024/04/02 06:53:56;;;;;;;3.13;2.23;;;11.50;99.90;;;;;;5115580;28;20511;-62
2024/04/02 06:56:25;;;;;;;4.17;2.80;;;11.50;99.90;;;;;;5116033;28;20469;-61
2024/04/02 06:58:52;;;;;;;6.03;2.90;;;11.50;99.90;;;;;;5115930;28;20534;-60
2024/04/02 07:01:17;;;;;;;4.93;2.13;;;11.60;99.90;;;;;;5115725;28;20426;-63
2024/04/02 07:03:44;;;;;;;3.13;2.53;;;11.60;99.90;;;;;;5115961;28;20422;-63
2024/04/02 07:06:10;;;;;;;4.00;2.87;;;11.70;99.90;;;;;;5115672;28;20450;-62
2024/04/02 07:08:40;;;;;;;2.77;2.50;;;11.70;99.90;;;;;;5115432;28;20449;-62
2024/04/02 07:11:07;;;;;;;2.60;2.30;;;11.70;99.90;;;;;;5115649;28;20493;-63
2024/04/02 07:13:35;;;;;;;3.00;2.20;;;11.80;99.90;;;;;;5115460;28;20454;-63
2024/04/02 07:16:01;;;;;;;3.17;2.83;;;11.90;99.90;;;;;;5115847;28;20466;-61
2024/04/02 07:18:34;;;;;;;3.30;3.00;;;11.90;99.90;;;;;;5116175;28;20426;-62
2024/04/02 07:21:01;;;;;;;3.70;2.30;;;11.90;99.90;;;;;;5115980;28;20488;-62
2024/04/02 07:23:28;;;;;;;3.50;2.43;;;11.90;99.90;;;;;;5115526;28;20460;-62
2024/04/02 07:25:56;;;;;;;2.23;2.03;;;12.00;99.90;;;;;;5097852;28;20534;-61
2024/04/02 07:28:23;;;;;;;4.13;2.33;;;12.10;99.90;;;;;;5115806;28;20421;-63
2024/04/02 07:30:49;;;;;;;2.53;2.23;;;12.20;99.90;;;;;;5115636;28;20422;-63
2024/04/02 07:33:17;;;;;;;3.93;3.23;;;12.20;99.90;;;;;;5116077;28;20526;-62
2024/04/02 07:35:43;;;;;;;4.20;2.30;;;12.20;99.90;;;;;;5115364;28;20475;-63
2024/04/02 07:38:11;;;;;;;3.27;2.30;;;12.30;99.90;;;;;;5115651;28;20497;-63
2024/04/02 07:40:37;;;;;;;4.37;2.57;;;12.30;99.90;;;;;;5115676;28;20465;-63
2024/04/02 07:43:06;;;;;;;4.03;2.50;;;12.40;99.90;;;;;;5115363;28;20441;-62
2024/04/02 07:45:32;;;;;;;4.10;2.70;;;12.40;99.90;;;;;;5115784;28;20465;-62
2024/04/02 07:47:59;;;;;;;1.63;1.53;;;12.50;99.90;;;;;;5115399;28;20422;-62
2024/04/02 07:50:28;;;;;;;5.70;2.30;;;12.60;99.90;;;;;;5115800;28;20446;-62
2024/04/02 07:52:56;;;;;;;10.70;2.67;;;12.70;99.90;;;;;;5115704;28;20441;-62
2024/04/02 07:55:22;;;;;;;3.73;2.17;;;12.70;99.90;;;;;;5115247;28;20474;-63
2024/04/02 07:57:49;;;;;;;2.57;2.37;;;12.60;99.90;;;;;;5117705;28;20457;-63
2024/04/02 08:00:17;;;;;;;6.40;2.60;;;12.50;99.90;;;;;;5118930;28;20476;-63
2024/04/02 08:02:45;;;;;;;6.07;2.90;;;12.50;99.90;;;;;;5118834;28;20448;-64
2024/04/02 08:05:11;;;;;;;4.67;2.53;;;12.40;99.90;;;;;;5118735;28;20518;-64
2024/04/02 08:07:38;;;;;;;4.77;2.67;;;12.40;99.90;;;;;;5119148;28;20438;-63
2024/04/02 08:10:05;;;;;;;2.67;2.20;;;12.40;99.90;;;;;;5118806;28;20503;-62
2024/04/02 08:12:32;;;;;;;2.30;1.50;;;12.40;99.90;;;;;;5119163;28;20463;-63
2024/04/02 08:14:58;;;;;;;2.27;2.07;;;12.30;99.90;;;;;;5118942;28;20521;-62
2024/04/02 08:17:26;;;;;;;5.30;2.17;;;12.20;99.90;;;;;;5118894;28;20426;-62
2024/04/02 08:19:52;;;;;;;4.13;2.30;;;12.30;99.90;;;;;;5119031;28;20482;-63
2024/04/02 08:22:19;;;;;;;3.30;2.60;;;12.40;99.90;;;;;;5117801;28;20438;-62
2024/04/02 08:24:48;;;;;;;4.50;2.53;;;12.60;99.90;;;;;;5117999;28;20433;-62
2024/04/02 08:27:15;;;;;;;3.03;2.10;;;12.80;99.90;;;;;;5118903;28;20825;-63
2024/04/02 08:29:41;;;;;;;2.30;2.10;;;13.10;99.90;;;;;;5117827;28;20434;-62
2024/04/02 08:32:08;;;;;;;2.50;2.00;;;13.20;99.90;;;;;;5118245;28;20922;-62
2024/04/02 08:34:35;;;;;;;3.97;2.00;;;13.10;99.90;;;;;;5118011;28;20426;-62
2024/04/02 08:37:03;;;;;;;3.23;2.23;;;13.00;99.90;;;;;;5117700;28;20457;-63
2024/04/02 08:39:29;;;;;;;4.20;2.17;;;13.20;99.90;;;;;;5117598;28;20434;-62
2024/04/02 08:42:01;;;;;;;7.20;2.00;;;13.40;99.90;;;;;;5118422;28;20667;-63
2024/04/02 08:44:44;;;;;;;4.17;1.70;;;13.40;99.90;;;;;;5117663;28;20494;-64
2024/04/02 08:47:12;;;;;;;7.57;2.10;;;13.90;99.90;;;;;;5114926;28;20510;-62
2024/04/02 08:49:41;;;;;;;1.90;1.57;;;14.10;99.90;;;;;;5117786;28;20445;-63
2024/04/02 08:52:08;;;;;;;3.10;1.57;;;14.10;99.90;;;;;;5117481;28;20509;-63
2024/04/02 08:54:34;;;;;;;2.20;1.70;;;14.10;99.90;;;;;;5116810;28;20426;-63
2024/04/02 08:57:02;;;;;;;3.10;1.30;;;14.60;99.90;;;;;;5117581;28;20437;-63
2024/04/02 08:59:33;;;;;;;4.60;1.40;;;15.10;99.90;;;;;;5116903;28;20442;-63
2024/04/02 09:02:00;;;;;;;1.93;1.60;;;15.00;99.90;;;;;;5116765;28;20432;-62
2024/04/02 09:04:29;;;;;;;3.40;1.40;;;14.70;99.90;;;;;;5117324;28;20489;-63
2024/04/02 09:06:57;;;;;;;4.93;1.83;;;14.30;99.90;;;;;;5117382;28;20497;-63
2024/04/02 09:09:25;;;;;;;3.53;2.00;;;14.00;99.90;;;;;;5117223;28;20446;-63
2024/04/02 09:11:51;;;;;;;2.57;1.13;;;13.90;99.90;;;;;;5117787;28;20468;-62
2024/04/02 09:14:19;;;;;;;3.23;1.30;;;13.80;99.90;;;;;;5117208;28;20459;-64
2024/04/02 09:16:48;;;;;;;2.23;1.67;;;13.60;99.90;;;;;;5117176;28;20492;-63
2024/04/02 09:19:15;;;;;;;1.83;1.03;;;13.40;99.90;;;;;;5117415;28;20438;-63
2024/04/02 09:21:41;;;;;;;3.63;1.90;;;13.90;99.90;;;;;;5116969;28;20496;-63
2024/04/02 09:24:10;;;;;;;1.83;1.00;;;14.30;99.90;;;;;;5116428;28;20423;-63
2024/04/02 09:26:37;;;;;;;3.30;1.57;;;15.40;99.90;;;;;;5115837;28;20468;-63
2024/04/02 09:29:04;;;;;;;2.30;1.27;;;16.30;99.90;;;;;;5115968;28;20426;-63
2024/04/02 09:31:32;;;;;;;3.00;1.30;;;16.50;99.90;;;;;;5115383;28;20430;-64
2024/04/02 09:34:09;;;;;;;3.77;1.50;;;16.10;99.90;;;;;;5115766;28;20441;-64
2024/04/02 09:36:43;;;;;;;3.30;1.10;;;16.10;99.90;;;;;;5115780;28;20450;-64
2024/04/02 09:39:14;;;;;;;5.20;1.20;;;15.80;99.90;;;;;;5115960;28;20434;-63
2024/04/02 09:41:41;;;;;;;1.20;0.90;;;15.40;99.90;;;;;;5116382;28;20501;-63
2024/04/02 09:44:14;;;;;;;2.30;1.27;;;14.90;99.90;;;;;;5117038;28;20446;-62
2024/04/02 09:46:42;;;;;;;1.30;0.93;;;14.50;99.90;;;;;;5116202;28;20465;-63
2024/04/02 09:49:11;;;;;;;1.17;1.00;;;15.00;99.90;;;;;;5115522;28;20446;-63
2024/04/02 09:51:39;;;;;;;2.60;1.43;;;15.10;99.90;;;;;;5115799;28;20422;-63
2024/04/02 09:54:07;;;;;;;1.67;0.90;;;15.30;99.90;;;;;;5115778;28;20449;-63
2024/04/02 09:56:35;;;;;;;1.20;1.03;;;15.20;99.90;;;;;;5116045;28;20463;-63
2024/04/02 09:59:03;;;;;;;4.70;1.30;;;14.90;99.90;;;;;;5116246;28;20449;-61
2024/04/02 10:01:32;;;;;;;1.67;1.00;;;14.60;99.90;;;;;;5116161;28;20492;-63
2024/04/02 10:04:05;;;;;;;3.33;1.00;;;14.40;99.90;;;;;;5116151;28;20434;-62
2024/04/02 10:06:32;;;;;;;4.97;1.40;;;14.20;99.90;;;;;;5116896;28;20446;-63
2024/04/02 10:09:00;;;;;;;1.20;1.00;;;14.00;99.90;;;;;;5116381;28;20438;-63
2024/04/02 10:11:40;;;;;;;1.83;1.73;;;14.00;99.90;;;;;;5116855;28;20475;-62
2024/04/02 10:14:09;;;;;;;2.03;1.20;;;14.10;99.90;;;;;;5116218;28;20444;-62
2024/04/02 10:16:39;;;;;;;1.80;1.00;;;14.10;99.90;;;;;;5116195;28;20462;-62
2024/04/02 10:19:06;;;;;;;3.97;1.20;;;14.10;99.90;;;;;;5116136;28;20459;-62
2024/04/02 10:21:34;;;;;;;3.07;1.27;;;14.20;99.90;;;;;;5114988;28;20482;-62
2024/04/02 10:24:02;;;;;;;2.90;1.20;;;14.30;99.90;;;;;;5115837;28;20434;-62
2024/04/02 10:26:31;;;;;;;1.20;1.00;;;14.30;99.90;;;;;;5116183;28;20475;-62
2024/04/02 10:28:59;;;;;;;3.57;1.40;;;14.10;99.90;;;;;;5116699;28;20409;-62
2024/04/02 10:31:36;;;;;;;2.03;1.13;;;14.10;99.90;;;;;;5115494;28;20450;-63
2024/04/02 10:34:09;;;;;;;1.83;0.90;;;13.90;99.90;;;;;;5116215;28;20449;-63
2024/04/02 10:36:36;;;;;;;3.40;1.10;;;13.80;99.90;;;;;;5116317;28;20453;-63
2024/04/02 10:39:04;;;;;;;4.73;1.50;;;13.60;99.90;;;;;;5116477;28;20434;-63
2024/04/02 10:41:31;;;;;;;3.00;1.60;;;14.30;99.90;;;;;;5116606;28;20462;-63
2024/04/02 10:44:00;;;;;;;1.57;0.90;;;15.20;99.90;;;;;;5115437;28;20481;-63
2024/04/02 10:46:26;;;;;;;3.27;1.90;;;15.90;99.90;;;;;;5115233;28;20450;-63
2024/04/02 10:48:57;;;;;;;4.00;1.93;;;15.80;99.90;;;;;;5115027;28;20621;-63
2024/04/02 10:51:25;;;;;;;1.60;1.33;;;15.60;99.90;;;;;;5114823;28;20790;-62
2024/04/02 10:53:52;;;;;;;2.03;1.27;;;15.40;99.90;;;;;;5114943;28;20946;-62
2024/04/02 10:56:19;;;;;;;1.67;1.10;;;15.20;99.90;;;;;;5115508;28;20456;-62
2024/04/02 10:58:46;;;;;;;2.30;1.03;;;14.80;99.90;;;;;;5116138;28;20455;-62
2024/04/02 11:01:14;;;;;;;1.30;0.90;;;14.40;99.90;;;;;;5115921;28;20478;-62
2024/04/02 11:03:42;;;;;;;5.53;1.60;;;14.30;99.90;;;;;;5116145;28;20442;-62
2024/04/02 11:06:10;;;;;;;2.60;1.20;;;14.20;99.90;;;;;;5115633;28;20476;-62
2024/04/02 11:08:38;;;;;;;1.47;0.90;;;14.20;99.90;;;;;;5115911;28;20438;-62
2024/04/02 11:11:04;;;;;;;1.87;1.33;;;14.30;99.90;;;;;;5116043;28;20859;-63
2024/04/02 11:13:31;;;;;;;12.27;1.93;;;14.40;99.90;;;;;;5115017;28;20432;-65
2024/04/02 11:15:57;;;;;;;1.27;1.00;;;14.60;99.90;;;;;;5115374;28;20466;-62
2024/04/02 11:18:27;;;;;;;2.50;1.57;;;14.80;99.90;;;;;;5115439;28;20441;-62
2024/04/02 11:20:57;;;;;;;6.70;1.90;;;14.90;99.90;;;;;;5115121;28;20484;-63
2024/04/02 11:26:15;;;;;;;3.17;1.50;;;15.30;99.90;;;;;;5114994;28;20481;-63
2024/04/02 11:28:42;;;;;;;5.17;1.40;;;15.10;99.90;;;;;;5115184;28;20458;-63
2024/04/02 11:31:10;;;;;;;1.87;1.10;;;15.00;99.90;;;;;;5114879;28;20433;-62
2024/04/02 11:33:39;;;;;;;2.53;1.63;;;14.80;99.90;;;;;;5118763;28;20438;-63
2024/04/02 11:36:05;;;;;;;5.03;1.43;;;14.70;99.90;;;;;;5119138;28;20465;-63
2024/04/02 11:38:32;;;;;;;2.37;1.27;;;14.50;99.90;;;;;;5119606;28;20449;-63
2024/04/02 11:40:59;;;;;;;5.77;1.40;;;14.40;99.90;;;;;;5118534;28;20477;-63
2024/04/02 11:43:26;;;;;;;2.00;1.17;;;14.30;99.90;;;;;;5119428;28;20434;-62
2024/04/02 11:45:52;;;;;;;3.73;1.33;;;14.10;99.90;;;;;;5119005;28;20472;-63
2024/04/02 11:48:19;;;;;;;4.00;1.30;;;14.10;99.90;;;;;;5118825;28;20447;-61
2024/04/02 11:50:47;;;;;;;3.83;1.57;;;14.20;99.90;;;;;;5118722;28;20453;-62
2024/04/02 11:53:14;;;;;;;4.10;1.77;;;14.30;99.90;;;;;;5118795;28;20441;-62
2024/04/02 11:55:41;;;;;;;5.17;1.20;;;14.40;99.90;;;;;;5118503;28;20450;-64
2024/04/02 12:00:53;;;;;;;1.70;1.20;;;14.50;99.90;;;;;;5118632;28;20445;-63
2024/04/02 12:03:20;;;;;;;5.83;1.20;;;14.60;99.90;;;;;;5118006;28;20490;-63
2024/04/02 12:05:49;;;;;;;1.60;1.20;;;14.50;99.90;;;;;;5119057;28;20462;-63
2024/04/02 12:08:16;;;;;;;1.67;1.30;;;14.50;99.90;;;;;;5118672;28;20441;-63
2024/04/02 12:10:43;;;;;;;1.50;1.30;;;14.40;99.90;;;;;;5118898;28;20438;-63
2024/04/02 12:13:10;;;;;;;1.93;1.00;;;14.40;99.90;;;;;;5118616;28;20456;-62
2024/04/02 12:15:36;;;;;;;1.60;1.20;;;14.60;99.90;;;;;;5118321;28;20472;-63
2024/04/02 12:18:03;;;;;;;2.40;1.10;;;14.80;99.90;;;;;;5118667;28;20421;-63
2024/04/02 12:20:29;;;;;;;3.83;2.10;;;14.90;99.90;;;;;;5118401;28;20473;-63
2024/04/02 12:22:57;;;;;;;1.90;1.17;;;14.90;99.90;;;;;;5118454;28;20461;-63
2024/04/02 12:25:23;;;;;;;6.83;1.47;;;14.80;99.90;;;;;;5118341;28;20499;-62
2024/04/02 12:27:54;;;;;;;2.10;1.60;;;14.70;99.90;;;;;;5117757;28;20438;-62
2024/04/02 12:30:20;;;;;;;3.00;1.00;;;14.60;99.90;;;;;;5118865;28;20657;-62
2024/04/02 12:32:48;;;;;;;6.40;1.17;;;14.50;99.90;;;;;;5118399;28;20434;-62
2024/04/02 12:35:14;;;;;;;6.43;1.33;;;14.40;99.90;;;;;;5118184;28;20492;-62
2024/04/02 12:37:42;;;;;;;2.87;1.37;;;14.40;99.90;;;;;;5117543;28;20448;-62
2024/04/02 12:40:10;;;;;;;2.33;1.20;;;14.30;99.90;;;;;;5118210;28;20455;-62
2024/04/02 12:42:37;;;;;;;5.67;1.60;;;14.10;99.90;;;;;;5117407;28;20468;-61
2024/04/02 12:45:04;;;;;;;4.03;1.27;;;14.00;99.90;;;;;;5116215;28;20470;-61
2024/04/02 12:47:31;;;;;;;1.63;1.30;;;13.90;99.90;;;;;;5116966;28;20429;-61
2024/04/02 12:49:57;;;;;;;3.33;1.70;;;13.70;99.90;;;;;;5117113;28;20441;-62
2024/04/02 12:52:24;;;;;;;3.20;1.80;;;13.70;99.90;;;;;;5118117;28;20445;-63